Time;durP1;ratioP1;P1;durP2;ratioP2;P2;SDS_P1;SDS_P2;PMS_P1;PMS_P2;Temp;Humidity;BMP_temperature;BMP_pressure;BME280_temperature;BME280_humidity;BME280_pressure;Samples;Min_cycle;Max_cycle;Signal;HPM_P1;HPM_P2
2021/08/13 00:01:19;;;;;;;9.60;8.82;;;24.70;72.00;;;;;;5002089;28;20325;-87
2021/08/13 00:03:44;;;;;;;10.13;9.32;;;24.70;72.40;;;;;;5001444;28;20222;-87
2021/08/13 00:06:10;;;;;;;10.70;9.70;;;24.50;72.90;;;;;;4986882;28;20340;-88
2021/08/13 00:08:36;;;;;;;10.35;9.35;;;24.40;73.20;;;;;;5004586;28;20174;-87
2021/08/13 00:11:02;;;;;;;9.85;9.13;;;24.40;73.70;;;;;;5003429;28;20210;-87
2021/08/13 00:13:28;;;;;;;10.38;9.48;;;24.40;73.40;;;;;;5003827;28;20197;-87
2021/08/13 00:15:53;;;;;;;10.63;9.82;;;24.30;73.90;;;;;;5002239;28;20261;-86
2021/08/13 00:18:20;;;;;;;9.30;8.50;;;24.20;73.60;;;;;;5004412;28;20260;-88
2021/08/13 00:20:45;;;;;;;10.43;9.38;;;24.40;72.90;;;;;;5003031;28;20649;-88
2021/08/13 00:23:11;;;;;;;10.65;9.63;;;24.40;72.80;;;;;;5002970;28;20202;-88
2021/08/13 00:25:37;;;;;;;10.20;9.30;;;24.40;72.80;;;;;;5003475;28;20186;-88
2021/08/13 00:28:03;;;;;;;10.25;9.25;;;24.50;72.40;;;;;;5019245;28;20186;-88
2021/08/13 00:30:29;;;;;;;9.45;8.70;;;24.50;72.20;;;;;;5003361;28;20204;-89
2021/08/13 00:32:55;;;;;;;10.05;9.25;;;24.60;71.70;;;;;;4986429;28;20202;-88
2021/08/13 00:35:20;;;;;;;9.88;8.98;;;24.50;71.80;;;;;;5002499;28;20194;-88
2021/08/13 00:37:46;;;;;;;9.77;8.93;;;24.50;71.90;;;;;;5003863;28;20265;-87
2021/08/13 00:40:12;;;;;;;9.73;8.77;;;24.40;71.90;;;;;;5007076;28;20262;-88
2021/08/13 00:42:38;;;;;;;10.25;9.43;;;24.20;73.40;;;;;;5006382;28;20178;-88
2021/08/13 00:45:05;;;;;;;11.15;10.10;;;23.70;75.90;;;;;;5006617;28;20202;-88
2021/08/13 00:47:31;;;;;;;11.20;10.15;;;23.50;77.00;;;;;;5006533;28;20182;-88
2021/08/13 00:49:57;;;;;;;11.63;10.55;;;23.60;76.50;;;;;;4989011;28;20194;-88
2021/08/13 00:52:24;;;;;;;10.68;9.77;;;23.70;76.30;;;;;;5004782;28;20252;-88
2021/08/13 00:54:50;;;;;;;10.32;9.43;;;23.70;75.60;;;;;;5005704;28;20206;-89
2021/08/13 00:57:16;;;;;;;10.57;9.57;;;23.70;75.30;;;;;;5006875;28;20236;-88
2021/08/13 00:59:42;;;;;;;10.73;9.55;;;23.60;75.70;;;;;;5005721;28;20210;-88
2021/08/13 01:02:08;;;;;;;11.20;10.20;;;23.60;76.20;;;;;;5006149;28;20183;-88
2021/08/13 01:04:34;;;;;;;10.95;9.98;;;23.50;76.30;;;;;;5003927;28;20179;-88
2021/08/13 01:07:02;;;;;;;10.98;9.98;;;23.50;76.70;;;;;;5003295;28;20178;-88
2021/08/13 01:09:27;;;;;;;9.70;8.82;;;23.50;76.50;;;;;;5003736;28;20187;-88
2021/08/13 01:12:08;;;;;;;11.10;10.00;;;23.70;75.80;;;;;;4987215;28;20233;-88
2021/08/13 01:14:42;;;;;;;10.50;9.60;;;23.80;75.20;;;;;;5002474;28;20813;-88
2021/08/13 01:17:10;;;;;;;10.05;9.20;;;23.70;75.70;;;;;;5003397;28;20242;-88
2021/08/13 01:20:04;;;;;;;10.40;9.60;;;23.50;76.50;;;;;;5002194;28;20214;-88
2021/08/13 01:23:02;;;;;;;11.30;10.20;;;23.50;76.40;;;;;;5008822;28;20603;-88
2021/08/13 01:25:33;;;;;;;11.45;10.40;;;23.70;76.40;;;;;;5018173;28;20273;-88
2021/08/13 01:28:09;;;;;;;10.10;9.27;;;23.70;75.80;;;;;;4998653;28;20183;-88
2021/08/13 01:30:37;;;;;;;11.75;10.65;;;23.60;76.10;;;;;;4984203;28;20262;-88
2021/08/13 01:33:08;;;;;;;11.20;10.10;;;23.40;77.30;;;;;;5018269;28;20654;-88
2021/08/13 01:35:38;;;;;;;10.50;9.57;;;23.40;77.30;;;;;;5003558;28;20243;-89
2021/08/13 01:38:14;;;;;;;11.38;10.30;;;23.40;76.90;;;;;;5003021;28;20187;-88
2021/08/13 01:40:46;;;;;;;11.25;10.25;;;23.70;76.40;;;;;;5017821;28;20206;-88
2021/08/13 01:43:14;;;;;;;9.95;9.05;;;23.70;75.70;;;;;;5017948;28;20186;-89
2021/08/13 01:45:42;;;;;;;10.35;9.45;;;23.80;75.10;;;;;;5003424;28;20198;-89
2021/08/13 01:48:09;;;;;;;10.80;9.82;;;23.90;74.80;;;;;;5018164;28;20186;-88
2021/08/13 01:50:35;;;;;;;10.77;9.88;;;24.00;74.30;;;;;;5001957;28;20206;-88
2021/08/13 01:53:02;;;;;;;9.45;8.75;;;23.90;74.30;;;;;;5001633;28;20256;-88
2021/08/13 01:55:30;;;;;;;10.40;9.48;;;23.90;74.40;;;;;;5001558;28;20206;-88
2021/08/13 01:57:56;;;;;;;10.48;9.52;;;24.00;74.00;;;;;;5001243;28;20190;-89
2021/08/13 02:00:24;;;;;;;10.35;9.48;;;24.10;73.50;;;;;;4996302;28;20203;-88
2021/08/13 02:02:51;;;;;;;9.32;8.55;;;24.10;73.80;;;;;;4998392;28;20198;-88
2021/08/13 02:05:20;;;;;;;10.82;9.80;;;24.00;74.50;;;;;;5001077;28;20178;-88
2021/08/13 02:07:47;;;;;;;9.77;8.98;;;24.00;74.40;;;;;;5018135;28;20214;-88
2021/08/13 02:10:13;;;;;;;9.85;9.05;;;23.90;74.20;;;;;;5017435;28;20186;-88
2021/08/13 02:12:39;;;;;;;11.48;10.48;;;23.90;75.20;;;;;;5018037;28;20175;-88
2021/08/13 02:15:08;;;;;;;12.93;10.95;;;23.70;76.50;;;;;;5017203;28;20170;-88
2021/08/13 02:17:38;;;;;;;10.93;10.05;;;23.50;77.30;;;;;;5003277;28;20190;-88
2021/08/13 02:20:14;;;;;;;11.13;10.20;;;23.50;77.10;;;;;;5002757;28;20221;-88
2021/08/13 02:22:40;;;;;;;11.35;10.32;;;23.50;77.50;;;;;;5003156;28;20174;-88
2021/08/13 02:25:07;;;;;;;11.52;10.38;;;23.60;77.70;;;;;;5004431;28;20193;-88
2021/08/13 02:27:33;;;;;;;11.05;10.13;;;23.50;78.10;;;;;;5017499;28;20189;-89
2021/08/13 02:29:59;;;;;;;10.38;9.52;;;23.30;78.90;;;;;;4985839;28;20236;-88
2021/08/13 02:32:29;;;;;;;10.40;9.50;;;23.40;77.90;;;;;;5008231;28;20234;-88
2021/08/13 02:34:55;;;;;;;10.80;9.95;;;23.50;77.70;;;;;;5016562;28;20186;-88
2021/08/13 02:37:33;;;;;;;11.15;10.25;;;23.50;78.30;;;;;;5016772;28;20246;-89
2021/08/13 02:40:03;;;;;;;10.80;9.95;;;23.40;78.40;;;;;;5012232;28;20245;-88
2021/08/13 02:43:00;;;;;;;10.32;9.35;;;23.40;79.00;;;;;;5004711;28;20228;-89
2021/08/13 02:45:26;;;;;;;11.20;10.18;;;23.30;79.10;;;;;;5008168;28;20220;-88
2021/08/13 02:47:58;;;;;;;10.48;9.68;;;23.10;80.40;;;;;;5000148;28;20193;-87
2021/08/13 02:50:27;;;;;;;10.40;9.48;;;23.00;81.10;;;;;;5017162;28;20211;-88
2021/08/13 02:53:06;;;;;;;12.45;10.70;;;23.10;80.70;;;;;;5001364;28;20182;-88
2021/08/13 02:55:44;;;;;;;12.07;10.98;;;23.30;82.60;;;;;;4999257;28;20297;-88
2021/08/13 02:58:14;;;;;;;12.25;11.23;;;23.30;81.50;;;;;;4999787;28;20221;-88
2021/08/13 03:00:44;;;;;;;12.45;11.38;;;23.10;84.20;;;;;;4982363;28;20226;-89
2021/08/13 03:03:13;;;;;;;12.70;11.65;;;23.10;83.70;;;;;;4983440;28;20221;-88
2021/08/13 03:05:43;;;;;;;13.25;12.02;;;23.10;83.20;;;;;;4998858;28;20182;-89
2021/08/13 03:08:10;;;;;;;13.15;11.95;;;23.10;83.30;;;;;;4999690;28;20198;-89
2021/08/13 03:10:39;;;;;;;14.80;12.77;;;22.60;85.40;;;;;;4982678;28;20202;-89
2021/08/13 03:13:07;;;;;;;13.90;12.63;;;22.40;87.10;;;;;;4999882;28;20170;-88
2021/08/13 03:15:43;;;;;;;24.50;16.05;;;22.30;87.40;;;;;;5000124;28;20186;-90
2021/08/13 03:28:50;;;;;;;;;;;;;;;;;;;;;
2021/08/13 03:31:37;;;;;;;13.77;12.57;;;22.10;91.20;;;;;;4985742;23;20330;-89
2021/08/13 03:34:04;;;;;;;13.32;11.90;;;22.30;90.70;;;;;;5001815;28;20174;-89
2021/08/13 03:36:30;;;;;;;13.48;12.18;;;22.10;91.60;;;;;;5001954;28;20209;-88
2021/08/13 03:38:56;;;;;;;13.52;12.23;;;22.20;90.00;;;;;;5002459;28;20218;-88
2021/08/13 03:41:22;;;;;;;14.48;13.13;;;22.30;89.90;;;;;;5000576;28;20200;-88
2021/08/13 03:43:48;;;;;;;13.23;11.82;;;22.20;89.60;;;;;;5002035;28;20186;-88
2021/08/13 03:46:13;;;;;;;13.10;11.73;;;22.20;89.80;;;;;;5001723;28;20683;-89
2021/08/13 03:48:39;;;;;;;12.93;11.63;;;22.20;89.20;;;;;;5001520;28;20553;-88
2021/08/13 03:51:05;;;;;;;12.43;11.32;;;22.10;88.90;;;;;;5000960;28;20696;-88
2021/08/13 03:53:30;;;;;;;13.68;12.25;;;22.10;89.60;;;;;;5001459;28;20186;-88
2021/08/13 03:55:56;;;;;;;12.52;11.45;;;21.80;89.50;;;;;;5001615;28;20215;-88
2021/08/13 03:58:22;;;;;;;13.07;11.88;;;21.70;89.80;;;;;;5003293;28;20293;-89
2021/08/13 04:00:47;;;;;;;11.52;10.45;;;21.80;89.80;;;;;;5002801;28;20182;-88
2021/08/13 04:03:13;;;;;;;12.48;11.35;;;22.00;89.90;;;;;;5002064;28;20206;-89
2021/08/13 04:05:39;;;;;;;12.18;10.98;;;22.10;88.10;;;;;;5002709;28;20198;-89
2021/08/13 04:08:05;;;;;;;13.07;11.73;;;22.10;88.00;;;;;;5001752;28;20201;-88
2021/08/13 04:10:30;;;;;;;12.77;11.57;;;22.10;88.20;;;;;;5000910;28;20178;-88
2021/08/13 04:12:56;;;;;;;11.93;10.93;;;22.30;88.30;;;;;;5001750;28;20186;-88
2021/08/13 04:15:22;;;;;;;11.93;10.82;;;22.40;88.20;;;;;;5002396;28;20203;-88
2021/08/13 04:17:48;;;;;;;12.60;11.50;;;22.40;87.50;;;;;;5018057;28;20194;-88
2021/08/13 04:20:15;;;;;;;12.65;11.52;;;22.30;87.10;;;;;;5001958;28;20216;-88
2021/08/13 04:22:41;;;;;;;12.77;11.63;;;22.30;87.30;;;;;;5000947;28;20246;-90
2021/08/13 04:25:07;;;;;;;13.30;12.25;;;22.40;88.20;;;;;;4996431;28;20214;-88
2021/08/13 04:27:33;;;;;;;12.35;11.25;;;22.40;86.60;;;;;;4985067;28;20682;-89
2021/08/13 04:29:59;;;;;;;11.52;10.43;;;22.40;86.90;;;;;;4985843;28;20210;-88
2021/08/13 04:32:24;;;;;;;12.50;10.57;;;22.30;87.70;;;;;;5003368;28;20261;-87
2021/08/13 04:34:50;;;;;;;12.45;11.35;;;22.40;88.00;;;;;;5002609;28;20206;-88
2021/08/13 04:37:16;;;;;;;12.18;10.98;;;22.40;86.50;;;;;;5005283;28;20183;-89
2021/08/13 04:39:42;;;;;;;11.65;10.60;;;22.30;87.20;;;;;;5005342;28;20225;-89
2021/08/13 04:42:07;;;;;;;12.40;10.98;;;22.30;87.90;;;;;;5005282;28;20202;-89
2021/08/13 04:44:33;;;;;;;12.25;11.25;;;22.40;87.00;;;;;;5005138;28;20198;-88
2021/08/13 04:46:59;;;;;;;12.15;11.05;;;22.40;87.10;;;;;;5002954;28;20178;-88
2021/08/13 04:49:25;;;;;;;13.27;12.05;;;22.40;87.40;;;;;;5004439;28;20187;-88
2021/08/13 04:51:51;;;;;;;11.73;10.75;;;22.20;87.20;;;;;;5003530;28;20190;-88
2021/08/13 04:54:17;;;;;;;12.18;11.07;;;22.30;86.40;;;;;;5003164;28;20549;-89
2021/08/13 04:56:42;;;;;;;11.60;10.52;;;22.30;87.00;;;;;;5004863;28;20218;-90
2021/08/13 04:59:08;;;;;;;12.70;11.55;;;22.20;87.00;;;;;;5004261;28;20681;-90
2021/08/13 05:01:34;;;;;;;12.07;11.00;;;22.30;87.90;;;;;;5004567;28;20192;-88
2021/08/13 05:04:00;;;;;;;12.68;11.60;;;22.50;86.90;;;;;;5004194;28;20206;-89
2021/08/13 05:06:26;;;;;;;12.05;10.95;;;22.60;86.60;;;;;;5004019;28;20704;-89
2021/08/13 05:08:51;;;;;;;11.48;10.57;;;22.70;85.70;;;;;;5001591;28;20346;-87
2021/08/13 05:11:17;;;;;;;12.32;11.43;;;22.70;86.00;;;;;;5002071;28;20212;-88
2021/08/13 05:13:44;;;;;;;12.05;11.13;;;22.70;86.30;;;;;;5005346;28;20194;-87
2021/08/13 05:16:10;;;;;;;11.70;10.82;;;22.60;85.90;;;;;;5004430;28;20229;-86
2021/08/13 05:18:35;;;;;;;11.80;10.90;;;22.50;86.50;;;;;;5004286;28;20233;-88
2021/08/13 05:21:02;;;;;;;11.63;10.57;;;22.60;86.80;;;;;;5003542;28;20217;-87
2021/08/13 05:23:27;;;;;;;11.35;10.35;;;22.70;85.70;;;;;;5003692;28;20179;-88
2021/08/13 05:25:58;;;;;;;12.40;11.30;;;22.70;85.80;;;;;;5002814;28;20213;-87
2021/08/13 05:28:23;;;;;;;11.38;10.27;;;22.60;86.20;;;;;;5003985;28;20187;-87
2021/08/13 05:30:49;;;;;;;13.70;12.60;;;22.70;87.00;;;;;;5002814;28;20217;-88
2021/08/13 05:33:15;;;;;;;13.18;12.10;;;22.70;87.60;;;;;;5001112;28;20252;-86
2021/08/13 05:35:40;;;;;;;13.65;12.25;;;22.50;88.00;;;;;;4996430;28;20513;-86
2021/08/13 05:38:06;;;;;;;13.25;12.15;;;22.40;88.30;;;;;;5003661;28;20247;-87
2021/08/13 05:40:32;;;;;;;11.95;10.95;;;22.50;88.10;;;;;;5004088;28;20213;-88
2021/08/13 05:42:59;;;;;;;11.75;10.75;;;22.60;87.70;;;;;;5003768;28;20251;-88
2021/08/13 05:45:26;;;;;;;13.02;11.80;;;22.60;87.30;;;;;;5005464;28;20403;-88
2021/08/13 05:47:52;;;;;;;12.88;11.48;;;22.70;88.20;;;;;;5003426;28;20719;-88
2021/08/13 05:50:17;;;;;;;13.68;12.13;;;22.70;88.20;;;;;;5004606;28;20214;-88
2021/08/13 05:52:44;;;;;;;11.25;10.18;;;22.60;87.80;;;;;;5001014;28;20600;-88
2021/08/13 05:55:11;;;;;;;12.38;11.25;;;22.70;88.20;;;;;;5004244;28;20202;-87
2021/08/13 05:57:37;;;;;;;13.00;11.85;;;22.60;88.00;;;;;;5004419;28;20269;-86
2021/08/13 06:00:04;;;;;;;11.95;10.95;;;22.70;87.80;;;;;;5000046;28;20217;-88
2021/08/13 06:02:30;;;;;;;12.50;11.50;;;22.70;87.80;;;;;;5018872;28;20177;-87
2021/08/13 06:04:56;;;;;;;12.73;11.65;;;22.70;87.30;;;;;;5023596;28;20262;-87
2021/08/13 06:07:23;;;;;;;13.25;11.77;;;22.80;87.30;;;;;;5023579;28;20172;-87
2021/08/13 06:09:48;;;;;;;14.45;13.02;;;22.80;87.80;;;;;;5023917;28;20186;-87
2021/08/13 06:12:14;;;;;;;11.95;10.85;;;22.90;86.90;;;;;;5023370;28;20191;-87
2021/08/13 06:14:40;;;;;;;13.27;12.10;;;23.00;85.90;;;;;;5029690;28;20289;-87
2021/08/13 06:17:07;;;;;;;13.48;12.18;;;23.10;85.90;;;;;;5022120;28;20217;-88
2021/08/13 06:19:33;;;;;;;14.43;13.13;;;23.20;86.90;;;;;;5003663;28;20212;-88
2021/08/13 06:21:58;;;;;;;14.43;12.98;;;23.20;86.80;;;;;;5003050;28;20178;-88
2021/08/13 06:24:25;;;;;;;13.45;12.05;;;23.20;86.60;;;;;;4989184;28;20283;-88
2021/08/13 06:26:51;;;;;;;13.05;11.95;;;23.20;86.90;;;;;;4984973;28;20378;-87
2021/08/13 06:29:17;;;;;;;15.05;13.50;;;23.20;86.90;;;;;;4998900;28;20179;-87
2021/08/13 06:31:42;;;;;;;14.88;13.52;;;23.30;86.60;;;;;;4983648;28;20202;-87
2021/08/13 06:34:08;;;;;;;14.57;13.27;;;23.30;87.00;;;;;;4983696;28;20716;-87
2021/08/13 06:36:34;;;;;;;13.27;12.07;;;23.30;87.00;;;;;;4997135;28;20306;-87
2021/08/13 06:39:00;;;;;;;14.10;12.90;;;23.30;86.40;;;;;;5001535;28;20213;-87
2021/08/13 06:41:25;;;;;;;15.13;13.82;;;23.30;86.90;;;;;;5103735;23;20328;-86
2021/08/13 06:43:51;;;;;;;14.82;13.48;;;23.40;87.90;;;;;;5014103;28;20220;-87
2021/08/13 06:46:17;;;;;;;14.90;13.52;;;23.40;87.30;;;;;;5016206;28;20262;-87
2021/08/13 06:48:43;;;;;;;15.45;14.18;;;23.50;87.60;;;;;;5013613;28;20197;-85
2021/08/13 06:51:09;;;;;;;14.35;13.00;;;23.50;89.00;;;;;;5015178;28;20651;-86
2021/08/13 06:53:34;;;;;;;15.05;13.60;;;23.50;87.90;;;;;;5018370;28;20672;-85
2021/08/13 06:56:00;;;;;;;14.57;13.38;;;23.50;89.30;;;;;;5018523;28;20603;-86
2021/08/13 06:58:26;;;;;;;14.95;13.55;;;23.60;87.70;;;;;;5019303;28;20360;-86
2021/08/13 07:00:52;;;;;;;14.85;13.43;;;23.60;88.10;;;;;;5018654;28;20209;-86
2021/08/13 07:03:17;;;;;;;15.13;13.77;;;23.60;89.80;;;;;;5018390;28;20201;-86
2021/08/13 07:05:43;;;;;;;15.18;13.77;;;23.70;86.70;;;;;;5018549;28;20228;-86
2021/08/13 07:08:10;;;;;;;14.02;12.93;;;23.60;87.80;;;;;;5013933;28;20702;-85
2021/08/13 07:10:36;;;;;;;16.10;14.48;;;23.80;86.00;;;;;;5018433;28;20205;-86
2021/08/13 07:13:02;;;;;;;13.32;12.27;;;23.90;86.60;;;;;;5018203;28;20181;-85
2021/08/13 07:15:28;;;;;;;16.02;14.60;;;24.00;85.60;;;;;;5019663;28;20216;-86
2021/08/13 07:17:54;;;;;;;15.23;13.73;;;24.10;86.60;;;;;;5017662;28;20197;-86
2021/08/13 07:20:19;;;;;;;15.13;13.82;;;24.10;85.30;;;;;;5019284;28;20217;-84
2021/08/13 07:22:45;;;;;;;15.60;14.23;;;24.10;85.20;;;;;;5017273;28;20188;-86
2021/08/13 07:25:11;;;;;;;14.40;13.20;;;24.20;84.50;;;;;;5018953;28;20186;-86
2021/08/13 07:27:37;;;;;;;15.57;14.07;;;24.30;85.50;;;;;;5021131;28;20245;-85
2021/08/13 07:30:05;;;;;;;14.63;13.43;;;24.40;84.80;;;;;;5021713;28;20245;-86
2021/08/13 07:32:30;;;;;;;14.52;13.18;;;24.60;82.90;;;;;;5021299;28;20240;-86
2021/08/13 07:34:56;;;;;;;14.32;12.93;;;24.50;84.10;;;;;;5018533;28;20197;-86
2021/08/13 07:37:22;;;;;;;12.95;11.85;;;24.60;83.20;;;;;;5016688;28;20197;-85
2021/08/13 07:39:48;;;;;;;14.80;12.90;;;24.70;79.60;;;;;;5016522;28;20239;-86
2021/08/13 07:42:15;;;;;;;14.20;12.77;;;24.80;81.10;;;;;;5008851;28;20185;-85
2021/08/13 07:44:41;;;;;;;13.88;12.68;;;24.80;81.00;;;;;;5015420;28;20204;-86
2021/08/13 07:47:07;;;;;;;14.57;13.40;;;24.70;84.00;;;;;;5019373;28;20192;-85
2021/08/13 07:49:33;;;;;;;14.43;12.95;;;24.70;80.80;;;;;;5020782;28;20193;-84
2021/08/13 07:51:58;;;;;;;13.75;12.10;;;24.80;81.50;;;;;;5021360;28;20484;-84
2021/08/13 07:54:24;;;;;;;13.10;11.90;;;24.80;79.90;;;;;;5019835;28;20185;-83
2021/08/13 07:56:50;;;;;;;13.48;12.07;;;24.90;80.00;;;;;;5019436;28;20194;-86
2021/08/13 07:59:15;;;;;;;13.15;11.95;;;25.10;79.20;;;;;;5024564;28;20206;-85
2021/08/13 08:01:41;;;;;;;14.52;12.13;;;25.20;79.20;;;;;;5023116;28;20204;-86
2021/08/13 08:04:07;;;;;;;14.15;11.20;;;25.20;77.70;;;;;;5021187;28;20707;-85
2021/08/13 08:06:33;;;;;;;11.95;10.70;;;25.30;76.50;;;;;;5024426;28;20197;-86
2021/08/13 08:08:59;;;;;;;11.63;10.52;;;25.30;75.90;;;;;;5025758;28;20228;-86
2021/08/13 08:11:25;;;;;;;11.95;10.85;;;25.30;76.70;;;;;;5020206;28;20213;-85
2021/08/13 08:13:51;;;;;;;11.57;10.52;;;25.40;78.10;;;;;;5020957;28;20190;-84
2021/08/13 08:16:16;;;;;;;12.85;11.50;;;25.30;77.10;;;;;;5020143;28;20236;-86
2021/08/13 08:18:42;;;;;;;12.55;11.30;;;25.30;76.60;;;;;;5020900;28;20216;-86
2021/08/13 08:21:08;;;;;;;13.85;10.27;;;25.40;74.60;;;;;;5037555;28;20217;-86
2021/08/13 08:23:33;;;;;;;11.82;10.65;;;25.60;73.80;;;;;;5023412;28;20190;-85
2021/08/13 08:25:59;;;;;;;11.98;9.38;;;25.60;72.50;;;;;;5022221;28;20564;-84
2021/08/13 08:28:25;;;;;;;11.35;10.18;;;25.60;74.60;;;;;;5022140;28;20201;-85
2021/08/13 08:30:50;;;;;;;11.25;10.23;;;25.70;73.60;;;;;;5021102;28;20247;-85
2021/08/13 08:33:16;;;;;;;14.32;10.45;;;25.80;74.70;;;;;;5021078;28;20188;-86
2021/08/13 08:35:42;;;;;;;14.40;10.30;;;26.00;74.00;;;;;;5023713;28;20197;-84
2021/08/13 08:38:09;;;;;;;11.55;10.40;;;25.80;75.80;;;;;;5023919;28;20202;-85
2021/08/13 08:40:38;;;;;;;11.30;10.10;;;25.70;74.40;;;;;;5024526;28;20201;-87
2021/08/13 08:43:07;;;;;;;10.73;9.60;;;25.80;76.10;;;;;;5025197;28;20281;-88
2021/08/13 08:45:35;;;;;;;10.95;9.77;;;25.90;74.90;;;;;;5024188;28;20193;-84
2021/08/13 08:48:04;;;;;;;10.85;9.75;;;26.30;72.70;;;;;;5012490;28;20190;-84
2021/08/13 08:50:32;;;;;;;12.98;10.50;;;26.50;72.60;;;;;;5022986;28;20205;-86
2021/08/13 08:53:00;;;;;;;11.10;10.10;;;26.40;74.70;;;;;;5023797;28;20224;-84
2021/08/13 08:55:26;;;;;;;10.02;9.02;;;26.50;72.20;;;;;;5038479;28;20212;-84
2021/08/13 08:57:56;;;;;;;10.80;9.55;;;26.90;70.20;;;;;;5038233;28;20185;-84
2021/08/13 09:00:22;;;;;;;10.60;9.68;;;26.90;67.70;;;;;;5022437;28;20236;-85
2021/08/13 09:02:48;;;;;;;10.77;9.45;;;26.60;69.60;;;;;;5033058;28;20221;-84
2021/08/13 09:05:14;;;;;;;10.88;9.70;;;26.50;70.30;;;;;;5014577;28;20197;-85
2021/08/13 09:07:40;;;;;;;11.13;9.52;;;26.50;71.60;;;;;;5031889;28;20799;-85
2021/08/13 09:10:11;;;;;;;12.63;11.30;;;26.70;70.50;;;;;;5012957;28;20210;-85
2021/08/13 09:12:37;;;;;;;11.68;9.32;;;26.50;73.10;;;;;;5013855;28;20280;-85
2021/08/13 09:15:06;;;;;;;11.10;9.98;;;26.50;73.80;;;;;;5015064;28;20201;-83
2021/08/13 09:17:33;;;;;;;10.30;9.30;;;26.90;70.40;;;;;;5015621;28;20231;-84
2021/08/13 09:19:59;;;;;;;10.77;9.73;;;27.00;67.90;;;;;;5013698;28;20280;-85
2021/08/13 09:22:25;;;;;;;10.77;9.30;;;27.00;69.50;;;;;;5015978;28;20264;-85
2021/08/13 09:24:53;;;;;;;11.20;10.07;;;26.90;69.20;;;;;;5018044;28;20581;-85
2021/08/13 09:27:26;;;;;;;9.52;8.52;;;26.90;69.50;;;;;;5015857;28;20544;-86
2021/08/13 09:30:08;;;;;;;10.20;9.30;;;27.00;70.60;;;;;;5016776;28;20192;-86
2021/08/13 09:32:34;;;;;;;10.13;9.15;;;27.20;68.80;;;;;;5032526;28;20284;-86
2021/08/13 09:35:01;;;;;;;11.02;8.85;;;27.50;66.80;;;;;;5015951;28;20216;-86
2021/08/13 09:37:26;;;;;;;11.18;10.07;;;27.70;66.40;;;;;;5016519;28;20225;-86
2021/08/13 09:39:56;;;;;;;10.18;9.18;;;27.70;68.10;;;;;;5016775;28;20734;-85
2021/08/13 09:42:36;;;;;;;10.13;9.07;;;28.00;63.80;;;;;;5014404;28;20288;-86
2021/08/13 09:45:06;;;;;;;11.32;9.02;;;28.20;63.80;;;;;;5012772;28;20205;-86
2021/08/13 09:47:39;;;;;;;10.57;9.48;;;28.20;63.60;;;;;;5015721;28;20229;-85
2021/08/13 09:50:06;;;;;;;10.10;9.18;;;28.00;65.30;;;;;;5015108;28;20526;-84
2021/08/13 09:52:33;;;;;;;10.45;9.45;;;28.10;66.80;;;;;;5013069;28;20590;-86
2021/08/13 09:55:15;;;;;;;10.95;9.88;;;28.20;66.50;;;;;;5014143;28;20213;-86
2021/08/13 09:57:42;;;;;;;11.07;9.98;;;28.20;66.40;;;;;;5015448;28;20201;-85
2021/08/13 10:00:09;;;;;;;11.02;9.90;;;28.20;64.40;;;;;;5014683;28;20308;-86
2021/08/13 10:02:38;;;;;;;12.00;9.48;;;28.30;64.00;;;;;;5014678;28;20247;-86
2021/08/13 10:05:21;;;;;;;10.20;9.25;;;28.30;65.10;;;;;;5015883;28;20231;-85
2021/08/13 10:07:52;;;;;;;10.68;9.68;;;28.20;62.30;;;;;;5015940;28;20209;-86
2021/08/13 10:10:29;;;;;;;12.40;9.73;;;28.20;63.30;;;;;;5014790;28;20255;-85
2021/08/13 10:12:55;;;;;;;11.75;10.18;;;28.40;61.90;;;;;;5014246;28;20201;-85
2021/08/13 10:15:37;;;;;;;10.80;9.80;;;28.20;64.20;;;;;;5016333;28;20676;-85
2021/08/13 10:18:09;;;;;;;11.15;10.05;;;28.30;64.20;;;;;;5014336;28;20193;-86
2021/08/13 10:20:38;;;;;;;12.07;9.88;;;28.50;64.00;;;;;;5014785;28;20213;-86
2021/08/13 10:23:04;;;;;;;11.10;10.02;;;28.70;63.50;;;;;;5014776;28;20210;-84
2021/08/13 10:25:30;;;;;;;12.45;10.77;;;28.90;61.10;;;;;;5015148;28;20185;-85
2021/08/13 10:27:56;;;;;;;11.98;10.90;;;28.90;62.50;;;;;;5015772;28;20185;-84
2021/08/13 10:30:23;;;;;;;10.75;9.77;;;29.00;61.70;;;;;;5015261;28;20209;-86
2021/08/13 10:32:56;;;;;;;11.43;9.77;;;29.10;63.20;;;;;;5017698;28;20555;-85
2021/08/13 10:35:30;;;;;;;12.52;10.38;;;29.30;63.00;;;;;;5014943;28;20640;-86
2021/08/13 10:37:58;;;;;;;10.70;9.73;;;29.50;60.50;;;;;;5013145;28;20212;-87
2021/08/13 10:40:25;;;;;;;11.35;10.25;;;29.80;59.80;;;;;;5012188;28;20309;-86
2021/08/13 10:42:52;;;;;;;13.02;10.95;;;29.90;60.10;;;;;;5014706;28;20213;-86
2021/08/13 10:45:23;;;;;;;11.60;10.50;;;30.10;59.80;;;;;;5014726;28;20197;-86
2021/08/13 10:48:04;;;;;;;11.55;10.45;;;30.00;59.50;;;;;;5011673;28;20189;-85
2021/08/13 10:50:30;;;;;;;10.55;9.65;;;30.00;61.70;;;;;;5011294;28;20209;-86
2021/08/13 10:52:56;;;;;;;12.32;11.27;;;30.10;60.60;;;;;;5012812;28;20247;-85
2021/08/13 10:55:47;;;;;;;11.48;10.27;;;30.10;59.70;;;;;;5013623;28;20201;-85
2021/08/13 10:58:13;;;;;;;12.07;10.68;;;30.40;59.20;;;;;;5011820;28;20205;-85
2021/08/13 11:01:06;;;;;;;10.23;9.13;;;30.20;59.80;;;;;;5013735;28;20272;-85
2021/08/13 11:03:38;;;;;;;11.98;10.77;;;30.40;58.20;;;;;;5009590;28;20213;-84
2021/08/13 11:06:05;;;;;;;12.93;11.73;;;30.30;58.80;;;;;;5012317;28;20201;-85
2021/08/13 11:08:39;;;;;;;11.48;10.45;;;30.10;59.90;;;;;;5011875;28;20276;-85
2021/08/13 11:11:05;;;;;;;14.20;12.10;;;30.40;58.90;;;;;;5011277;28;20208;-84
2021/08/13 11:13:43;;;;;;;12.68;10.98;;;30.60;60.10;;;;;;5013089;28;20185;-84
2021/08/13 11:16:30;;;;;;;11.55;10.35;;;30.40;59.50;;;;;;5012192;28;20285;-86
2021/08/13 11:18:58;;;;;;;14.40;10.40;;;30.50;56.50;;;;;;5009918;28;20225;-85
2021/08/13 11:21:32;;;;;;;16.73;11.00;;;30.50;58.20;;;;;;5013833;28;20838;-84
2021/08/13 11:24:04;;;;;;;12.05;10.93;;;30.80;57.60;;;;;;5013991;28;20194;-84
2021/08/13 11:26:50;;;;;;;12.05;11.05;;;30.80;57.20;;;;;;5011925;28;20194;-86
2021/08/13 11:29:34;;;;;;;12.85;11.55;;;30.90;57.10;;;;;;5013437;28;20224;-85
2021/08/13 11:32:08;;;;;;;13.02;11.73;;;31.10;56.90;;;;;;5013034;28;20337;-84
2021/08/13 11:35:01;;;;;;;12.77;11.65;;;31.20;58.10;;;;;;5014313;28;20185;-86
2021/08/13 11:37:38;;;;;;;12.77;11.65;;;31.50;57.60;;;;;;5016184;28;20276;-85
2021/08/13 11:40:13;;;;;;;13.00;11.75;;;31.60;56.00;;;;;;5022627;28;20220;-84
2021/08/13 11:42:51;;;;;;;13.25;11.93;;;31.40;55.60;;;;;;5027267;28;20225;-86
2021/08/13 11:45:17;;;;;;;13.27;11.85;;;31.60;55.00;;;;;;5025942;28;20192;-84
2021/08/13 11:47:53;;;;;;;12.93;11.88;;;31.50;56.00;;;;;;5018819;28;20201;-86
2021/08/13 11:50:22;;;;;;;13.98;12.73;;;31.50;56.00;;;;;;5013979;28;20209;-85
2021/08/13 11:52:49;;;;;;;12.48;11.40;;;31.40;56.90;;;;;;5018221;28;20165;-81
2021/08/13 11:55:17;;;;;;;13.23;11.63;;;31.40;56.80;;;;;;5033924;28;20217;-84
2021/08/13 11:57:42;;;;;;;17.88;13.63;;;31.60;56.10;;;;;;5021312;28;20490;-86
2021/08/13 12:00:22;;;;;;;13.77;12.65;;;31.70;56.40;;;;;;5017526;28;20212;-86
2021/08/13 12:02:55;;;;;;;13.85;12.63;;;31.80;54.80;;;;;;5014948;28;20255;-85
2021/08/13 12:05:21;;;;;;;13.32;12.13;;;31.80;54.40;;;;;;5015582;28;20186;-86
2021/08/13 12:07:59;;;;;;;13.65;12.55;;;31.40;56.90;;;;;;5016011;28;20261;-85
2021/08/13 12:10:25;;;;;;;13.95;12.68;;;31.50;56.50;;;;;;5018009;28;20216;-84
2021/08/13 12:12:51;;;;;;;13.05;12.02;;;31.50;57.00;;;;;;5017476;28;20541;-84
2021/08/13 12:15:31;;;;;;;14.02;12.73;;;31.90;55.20;;;;;;5015689;28;20190;-86
2021/08/13 12:17:57;;;;;;;14.45;12.48;;;31.50;57.00;;;;;;5017593;28;20250;-84
2021/08/13 12:20:23;;;;;;;13.93;12.43;;;31.50;56.90;;;;;;5026386;28;20218;-85
2021/08/13 12:22:55;;;;;;;12.80;11.63;;;31.90;54.90;;;;;;5025026;28;20204;-85
2021/08/13 12:25:21;;;;;;;13.35;12.05;;;32.30;55.90;;;;;;5024458;28;20294;-86
2021/08/13 12:27:46;;;;;;;13.18;11.98;;;32.50;54.30;;;;;;5018084;28;20576;-86
2021/08/13 12:30:18;;;;;;;13.35;11.85;;;32.40;54.50;;;;;;5012495;28;20209;-85
2021/08/13 12:32:44;;;;;;;12.48;11.27;;;32.20;55.20;;;;;;5016599;28;20185;-85
2021/08/13 12:35:12;;;;;;;14.60;12.60;;;32.20;55.30;;;;;;5017747;28;20197;-84
2021/08/13 12:37:39;;;;;;;12.88;11.23;;;32.20;55.00;;;;;;5018394;28;20197;-86
2021/08/13 12:40:06;;;;;;;13.90;12.52;;;32.30;54.10;;;;;;5014848;28;20226;-86
2021/08/13 12:42:33;;;;;;;13.23;12.00;;;32.70;53.70;;;;;;5019249;28;20189;-85
2021/08/13 12:45:00;;;;;;;13.15;11.45;;;33.20;54.70;;;;;;5018077;28;20213;-86
2021/08/13 12:47:26;;;;;;;12.15;11.05;;;33.60;52.60;;;;;;5022732;28;20193;-86